Time;durP1;ratioP1;P1;durP2;ratioP2;P2;SDS_P1;SDS_P2;PMS_P1;PMS_P2;Temp;Humidity;BMP_temperature;BMP_pressure;BME280_temperature;BME280_humidity;BME280_pressure;Samples;Min_cycle;Max_cycle;Signal;HPM_P1;HPM_P2
2023/11/13 00:01:30;;;;;;;11.15;2.75;;;;;;;18.53;100.00;101335.47;20925309;28;20041;-74
2023/11/13 00:11:53;;;;;;;7.57;1.88;;;;;;;18.20;100.00;101328.56;20910173;28;20052;-73
2023/11/13 00:22:17;;;;;;;10.80;3.45;;;;;;;17.89;100.00;101325.22;20904865;28;20075;-73
2023/11/13 00:32:40;;;;;;;14.35;4.00;;;;;;;17.88;100.00;101312.75;20957465;28;20500;-72
2023/11/13 00:43:05;;;;;;;17.52;7.72;;;;;;;18.17;100.00;101293.88;20939759;28;20071;-73
2023/11/13 00:53:34;;;;;;;17.80;6.78;;;;;;;18.49;100.00;101290.94;20873520;28;20072;-73
2023/11/13 01:03:59;;;;;;;13.70;6.20;;;;;;;18.78;100.00;101288.03;20940184;28;20414;-72
2023/11/13 01:14:21;;;;;;;24.70;15.18;;;;;;;18.89;100.00;101283.47;20945619;28;20041;-73
2023/11/13 01:24:47;;;;;;;70.65;62.15;;;;;;;19.03;100.00;101281.50;20930317;28;20510;-73
2023/11/13 01:35:10;;;;;;;41.17;36.47;;;;;;;19.13;100.00;101276.06;20949125;28;20045;-73
2023/11/13 01:45:34;;;;;;;30.65;20.30;;;;;;;19.24;100.00;101272.34;20903217;28;20076;-73
2023/11/13 01:55:58;;;;;;;20.10;13.93;;;;;;;19.35;100.00;101274.94;20909721;28;20645;-74
2023/11/13 02:06:23;;;;;;;11.05;4.90;;;;;;;19.36;100.00;101255.28;20890707;28;20052;-73
2023/11/13 02:16:46;;;;;;;7.65;2.08;;;;;;;19.25;100.00;101235.78;20920302;28;20665;-73
2023/11/13 02:27:10;;;;;;;84.75;75.78;;;;;;;19.19;100.00;101225.13;20919019;28;20142;-74
2023/11/13 02:37:32;;;;;;;9.02;3.22;;;;;;;19.10;100.00;101218.09;20931477;28;20106;-73
2023/11/13 02:47:56;;;;;;;23.48;12.40;;;;;;;19.05;100.00;101218.16;20886634;28;20048;-73
2023/11/13 02:58:19;;;;;;;46.92;25.35;;;;;;;19.07;100.00;101229.75;20928015;28;20410;-73
2023/11/13 03:08:45;;;;;;;46.63;29.00;;;;;;;19.02;100.00;101228.91;20878747;28;20102;-73
2023/11/13 03:19:08;;;;;;;13.27;4.72;;;;;;;18.98;100.00;101220.91;20954238;28;20053;-73
2023/11/13 03:29:33;;;;;;;8.32;2.00;;;;;;;18.91;100.00;101220.09;20921813;28;20040;-73
2023/11/13 03:39:55;;;;;;;9.98;2.78;;;;;;;18.86;100.00;101219.28;20883085;28;20111;-73
2023/11/13 03:50:21;;;;;;;8.35;2.03;;;;;;;18.77;100.00;101213.16;20933263;28;20111;-74
2023/11/13 04:00:44;;;;;;;13.52;5.00;;;;;;;18.73;100.00;101206.94;20937670;28;20064;-74
2023/11/13 04:11:08;;;;;;;4.78;1.35;;;;;;;18.84;100.00;101196.13;20927238;28;20048;-73
2023/11/13 04:21:31;;;;;;;9.82;1.60;;;;;;;18.95;100.00;101196.91;20892726;28;20557;-73
2023/11/13 04:31:55;;;;;;;7.20;1.52;;;;;;;18.89;100.00;101195.19;20961958;28;20052;-73
2023/11/13 04:42:18;;;;;;;11.63;2.20;;;;;;;18.86;100.00;101218.38;20940540;28;20106;-72
2023/11/13 04:52:42;;;;;;;9.10;1.42;;;;;;;18.89;100.00;101245.13;20910284;28;20048;-72
2023/11/13 05:03:04;;;;;;;9.35;1.98;;;;;;;18.96;100.00;101239.69;20931356;28;20071;-72
2023/11/13 05:13:29;;;;;;;10.38;1.63;;;;;;;18.97;100.00;101244.13;20888807;28;20044;-72
2023/11/13 05:23:52;;;;;;;7.20;1.85;;;;;;;19.02;100.00;101266.38;20898560;28;20072;-73
2023/11/13 05:34:16;;;;;;;8.80;1.42;;;;;;;19.01;100.00;101269.97;20902155;28;20102;-72
2023/11/13 05:44:38;;;;;;;4.90;1.08;;;;;;;19.29;100.00;101281.25;20880062;28;20084;-73
2023/11/13 05:55:03;;;;;;;4.82;1.00;;;;;;;19.84;100.00;101273.41;20953795;28;20048;-73
2023/11/13 06:05:25;;;;;;;4.45;1.08;;;;;;;20.27;100.00;101268.28;20908220;28;20145;-73
2023/11/13 06:15:49;;;;;;;5.05;0.93;;;;;;;20.67;100.00;101255.13;20946064;28;20094;-74
2023/11/13 06:26:13;;;;;;;5.22;1.10;;;;;;;20.97;100.00;101232.16;20911075;28;20047;-74
2023/11/13 06:36:42;;;;;;;3.55;0.77;;;;;;;21.41;100.00;101217.84;20908756;28;20049;-74
2023/11/13 06:47:05;;;;;;;3.78;0.70;;;;;;;21.91;100.00;101226.59;20903553;28;20130;-73
2023/11/13 06:57:29;;;;;;;5.45;0.80;;;;;;;22.24;100.00;101215.03;20936500;28;20055;-73
2023/11/13 07:07:52;;;;;;;4.40;0.65;;;;;;;22.56;100.00;101213.31;20742887;28;20049;-74
2023/11/13 07:18:16;;;;;;;2.88;0.77;;;;;;;22.99;100.00;101210.34;20755227;28;20050;-74
2023/11/13 07:28:39;;;;;;;7.80;1.02;;;;;;;23.28;100.00;101209.53;20725438;28;20069;-74
2023/11/13 07:39:03;;;;;;;4.07;0.77;;;;;;;23.58;100.00;101186.16;20758112;28;20096;-74
2023/11/13 07:49:26;;;;;;;8.52;0.70;;;;;;;23.91;100.00;101189.59;20743048;28;20381;-74
2023/11/13 07:59:50;;;;;;;4.03;1.00;;;;;;;24.16;100.00;101164.44;20743803;28;20077;-74
2023/11/13 08:10:13;;;;;;;6.00;1.17;;;;;;;24.36;100.00;101158.41;20880564;28;20041;-74
2023/11/13 08:20:38;;;;;;;4.68;1.23;;;;;;;24.72;100.00;101171.53;20876647;28;20163;-74
2023/11/13 08:31:05;;;;;;;5.38;0.80;;;;;;;25.19;100.00;101177.91;20879303;28;20064;-74
2023/11/13 08:41:32;;;;;;;3.05;1.30;;;;;;;24.76;100.00;101173.19;20863907;28;20045;-73
2023/11/13 08:51:58;;;;;;;4.47;0.70;;;;;;;25.22;100.00;101159.75;20893951;28;20048;-75
2023/11/13 09:02:25;;;;;;;5.77;1.33;;;;;;;25.65;99.25;101141.88;20965089;28;20062;-74
2023/11/13 09:12:48;;;;;;;6.18;1.10;;;;;;;25.51;98.41;101133.41;20911637;28;20052;-74
2023/11/13 09:23:13;;;;;;;5.45;1.23;;;;;;;25.15;97.71;101116.78;20938240;28;20049;-74
2023/11/13 09:33:35;;;;;;;4.28;1.10;;;;;;;24.58;100.00;101104.53;20943231;28;20098;-74
2023/11/13 09:43:59;;;;;;;5.20;1.88;;;;;;;24.50;100.00;101095.81;20882606;28;20052;-75
2023/11/13 09:54:23;;;;;;;4.68;1.10;;;;;;;24.33;100.00;101077.56;20893522;28;20132;-74
2023/11/13 10:04:47;;;;;;;7.82;1.67;;;;;;;24.96;100.00;101038.28;20927549;28;20166;-75
2023/11/13 10:15:12;;;;;;;5.22;0.85;;;;;;;25.54;91.98;101039.50;20959093;28;20083;-74
2023/11/13 10:25:45;;;;;;;10.85;5.07;;;;;;;25.42;94.61;101015.69;20919403;28;20463;-75
2023/11/13 10:36:17;;;;;;;5.20;0.90;;;;;;;26.07;93.03;101012.88;20915151;28;20128;-74
2023/11/13 10:46:42;;;;;;;4.75;0.82;;;;;;;25.69;95.56;100995.63;20915645;28;20048;-75
2023/11/13 10:57:08;;;;;;;5.43;1.15;;;;;;;26.04;97.47;100999.50;20951689;28;20070;-75
2023/11/13 11:07:33;;;;;;;8.33;1.40;;;;;;;25.95;98.95;101002.59;20861790;28;20151;-75
2023/11/13 11:18:05;;;;;;;4.75;1.05;;;;;;;25.69;99.68;100973.09;20906652;28;20060;-75
2023/11/13 11:28:42;;;;;;;7.55;0.90;;;;;;;25.12;96.37;100987.22;20936633;28;20052;-74
2023/11/13 11:39:22;;;;;;;5.93;1.60;;;;;;;24.85;100.00;101005.38;20889958;28;20053;-74
2023/11/13 11:49:46;;;;;;;7.57;0.70;;;;;;;24.62;100.00;101033.25;20854467;28;20087;-75
2023/11/13 12:00:15;;;;;;;2.70;0.60;;;;;;;23.76;100.00;101043.53;20930024;28;20060;-74
2023/11/13 12:10:41;;;;;;;4.20;0.75;;;;;;;23.47;100.00;101029.25;20877348;28;20402;-74
2023/11/13 12:21:04;;;;;;;8.25;1.10;;;;;;;23.02;100.00;101095.34;20879466;28;20049;-74
2023/11/13 12:31:28;;;;;;;17.42;2.38;;;;;;;21.53;100.00;101051.94;20841694;28;20042;-76
2023/11/13 12:41:52;;;;;;;12.48;2.05;;;;;;;21.52;100.00;100958.81;20869817;28;20053;-80
2023/11/13 12:52:17;;;;;;;9.07;1.50;;;;;;;21.47;100.00;100953.53;20848691;28;20045;-78
2023/11/13 13:02:43;;;;;;;7.05;1.30;;;;;;;21.58;100.00;100937.16;20868389;28;20061;-79
2023/11/13 13:13:10;;;;;;;11.00;2.47;;;;;;;21.35;100.00;100918.94;20858769;28;20045;-82
2023/11/13 13:23:34;;;;;;;11.85;2.20;;;;;;;21.21;100.00;100905.88;20919342;28;20562;-80
2023/11/13 13:34:00;;;;;;;4.55;0.90;;;;;;;21.10;100.00;100926.72;20915729;28;20076;-79
2023/11/13 13:44:22;;;;;;;2.28;0.50;;;;;;;20.79;100.00;100928.38;20844437;28;20045;-79
2023/11/13 13:54:49;;;;;;;3.03;0.40;;;;;;;20.64;100.00;100929.63;20862874;28;20044;-79
2023/11/13 14:05:12;;;;;;;2.60;1.10;;;;;;;20.52;100.00;100941.53;20814018;28;20236;-78
2023/11/13 14:15:37;;;;;;;4.18;1.42;;;;;;;20.42;100.00;100965.88;20848596;28;20087;-80
2023/11/13 14:25:59;;;;;;;2.63;0.90;;;;;;;20.36;100.00;100980.31;20863327;28;20384;-78
2023/11/13 14:36:24;;;;;;;3.38;0.98;;;;;;;20.43;100.00;101005.19;20884373;28;20060;-78
2023/11/13 14:46:46;;;;;;;3.50;0.90;;;;;;;20.44;100.00;101023.94;20893802;28;20544;-78
2023/11/13 14:57:10;;;;;;;1.35;0.52;;;;;;;20.60;100.00;101040.63;20911215;28;20040;-78
2023/11/13 15:07:34;;;;;;;3.35;0.63;;;;;;;20.62;100.00;101044.13;20900208;28;20049;-78
2023/11/13 15:17:59;;;;;;;1.83;0.70;;;;;;;20.51;100.00;101051.53;20921384;28;20402;-78
2023/11/13 15:28:21;;;;;;;2.58;0.70;;;;;;;20.38;100.00;101048.22;20936504;28;20567;-78
2023/11/13 15:38:46;;;;;;;6.13;1.50;;;;;;;20.27;100.00;101060.91;20901068;28;20070;-78
2023/11/13 15:49:10;;;;;;;3.53;1.00;;;;;;;20.27;100.00;101047.50;20842697;28;20049;-78
2023/11/13 15:59:34;;;;;;;6.60;1.27;;;;;;;20.06;100.00;101064.00;20818656;28;20052;-78
2023/11/13 16:09:57;;;;;;;4.65;1.50;;;;;;;20.02;100.00;101081.06;20853921;28;20052;-78
2023/11/13 16:20:21;;;;;;;5.78;1.60;;;;;;;20.01;100.00;101081.97;20870575;28;20076;-77
2023/11/13 16:30:44;;;;;;;30.92;4.43;;;;;;;19.18;100.00;101133.25;20860921;28;20048;-78
2023/11/13 16:41:11;;;;;;;10.05;2.45;;;;;;;19.21;100.00;101143.91;20857734;28;20443;-78
2023/11/13 16:51:33;;;;;;;17.42;2.50;;;;;;;19.30;100.00;101151.81;20889759;28;20453;-79
2023/11/13 17:01:57;;;;;;;14.77;2.22;;;;;;;19.34;100.00;101168.72;20874209;28;20560;-79
2023/11/13 17:12:20;;;;;;;18.50;2.85;;;;;;;19.20;100.00;101192.13;20891682;28;20394;-80
2023/11/13 17:22:44;;;;;;;11.52;2.05;;;;;;;18.95;100.00;101197.78;20939034;28;20048;-79
2023/11/13 17:33:06;;;;;;;6.70;1.42;;;;;;;18.85;100.00;101228.19;20926489;28;20052;-79
2023/11/13 17:43:32;;;;;;;7.38;1.52;;;;;;;18.73;100.00;101233.69;20894127;28;20049;-83
2023/11/13 17:53:54;;;;;;;7.00;1.50;;;;;;;18.74;100.00;101227.44;20844930;28;20106;-82
2023/11/13 18:04:18;;;;;;;8.68;1.45;;;;;;;18.90;100.00;101215.69;20859179;28;20057;-81
2023/11/13 18:14:40;;;;;;;12.35;1.95;;;;;;;19.00;100.00;101212.00;20867349;28;20574;-85
2023/11/13 18:25:05;;;;;;;8.85;1.42;;;;;;;19.08;100.00;101247.56;20862111;28;20049;-77
2023/11/13 18:35:28;;;;;;;13.05;1.90;;;;;;;19.07;100.00;101224.38;20843985;28;20041;-77
2023/11/13 18:45:54;;;;;;;14.90;2.90;;;;;;;18.88;100.00;101248.69;20857568;28;20041;-76
2023/11/13 18:56:17;;;;;;;13.75;2.88;;;;;;;18.93;100.00;101279.84;20889288;28;20709;-77
2023/11/13 19:06:42;;;;;;;13.60;2.60;;;;;;;18.87;100.00;101290.63;20915907;28;20048;-77
2023/11/13 19:17:05;;;;;;;9.48;2.38;;;;;;;18.80;100.00;101315.66;20909886;28;20044;-77
2023/11/13 19:27:30;;;;;;;9.50;2.00;;;;;;;18.80;100.00;101326.34;20915123;28;20517;-79
2023/11/13 19:37:53;;;;;;;11.15;2.30;;;;;;;18.84;100.00;101337.94;20915606;28;20049;-78
2023/11/13 19:48:17;;;;;;;8.05;2.10;;;;;;;18.85;100.00;101345.91;20929021;28;20135;-78
2023/11/13 19:58:39;;;;;;;7.63;2.45;;;;;;;18.91;100.00;101348.53;20899054;28;20525;-79
2023/11/13 20:09:04;;;;;;;7.78;1.90;;;;;;;18.86;100.00;101365.53;20897831;28;20052;-77
2023/11/13 20:19:27;;;;;;;9.38;1.95;;;;;;;18.80;100.00;101378.97;20896799;28;20041;-75
2023/11/13 20:29:51;;;;;;;16.42;2.42;;;;;;;18.79;100.00;101388.78;20925626;28;20047;-76
2023/11/13 20:40:14;;;;;;;12.18;2.45;;;;;;;18.80;100.00;101385.22;20934770;28;20036;-75
2023/11/13 20:50:38;;;;;;;6.90;1.52;;;;;;;18.68;100.00;101385.31;20926072;28;20133;-75
2023/11/13 21:01:01;;;;;;;6.63;1.65;;;;;;;18.63;100.00;101385.34;20888766;28;20049;-74
2023/11/13 21:11:25;;;;;;;8.68;1.58;;;;;;;18.53;100.00;101388.06;20913255;28;20052;-75
2023/11/13 21:21:47;;;;;;;10.13;1.60;;;;;;;18.48;100.00;101398.78;20931527;28;20044;-75
2023/11/13 21:32:12;;;;;;;7.57;1.60;;;;;;;18.57;100.00;101405.91;20937876;28;20045;-75
2023/11/13 21:42:35;;;;;;;7.47;1.50;;;;;;;18.58;100.00;101411.22;20942494;28;20056;-74
2023/11/13 21:53:01;;;;;;;6.13;1.30;;;;;;;18.67;100.00;101407.59;20929111;28;20037;-73
2023/11/13 22:03:23;;;;;;;6.53;1.45;;;;;;;18.66;100.00;101406.72;20931782;28;20143;-74
2023/11/13 22:13:47;;;;;;;9.23;2.00;;;;;;;18.74;100.00;101395.97;20937201;28;20044;-74
2023/11/13 22:24:10;;;;;;;12.05;2.00;;;;;;;18.47;100.00;101388.09;20889260;28;20052;-74
2023/11/13 22:34:34;;;;;;;11.13;2.40;;;;;;;18.44;100.00;101388.13;20896290;28;20394;-75
2023/11/13 22:44:57;;;;;;;12.93;2.58;;;;;;;18.27;100.00;101391.78;20939925;28;20102;-75
2023/11/13 22:55:21;;;;;;;7.32;1.67;;;;;;;18.19;100.00;101390.94;20914725;28;20437;-74
2023/11/13 23:05:44;;;;;;;7.68;1.83;;;;;;;18.12;100.00;101389.19;20939625;28;20063;-75
2023/11/13 23:16:09;;;;;;;8.63;1.75;;;;;;;18.11;100.00;101376.75;20926669;28;20056;-75
2023/11/13 23:26:32;;;;;;;8.25;2.10;;;;;;;18.11;100.00;101370.53;20908366;28;20103;-75
2023/11/13 23:36:58;;;;;;;7.30;1.50;;;;;;;18.07;100.00;101356.28;20914246;28;20080;-75
2023/11/13 23:47:20;;;;;;;7.63;1.50;;;;;;;18.01;100.00;101360.75;20936119;28;20706;-74
2023/11/13 23:57:45;;;;;;;7.63;2.25;;;;;;;17.96;100.00;101351.88;20952560;28;20053;-74
